sensor_id;sensor_type;location;lat;lon;timestamp;temperature;humidity
2300;DHT22;1158;48.750;9.078;2022-11-20T00:00:19;3.60;99.90
2300;DHT22;1158;48.750;9.078;2022-11-20T00:02:46;3.60;99.90
2300;DHT22;1158;48.750;9.078;2022-11-20T00:05:14;3.50;99.90
2300;DHT22;1158;48.750;9.078;2022-11-20T00:07:41;3.60;99.90
2300;DHT22;1158;48.750;9.078;2022-11-20T00:10:08;3.60;99.90
2300;DHT22;1158;48.750;9.078;2022-11-20T00:12:34;3.60;99.90
2300;DHT22;1158;48.750;9.078;2022-11-20T00:15:01;3.60;99.90
2300;DHT22;1158;48.750;9.078;2022-11-20T00:17:28;3.60;99.90
2300;DHT22;1158;48.750;9.078;2022-11-20T00:19:55;3.50;99.90
2300;DHT22;1158;48.750;9.078;2022-11-20T00:22:23;3.50;99.90
2300;DHT22;1158;48.750;9.078;2022-11-20T00:24:50;3.50;99.90
2300;DHT22;1158;48.750;9.078;2022-11-20T00:27:16;3.50;99.90
2300;DHT22;1158;48.750;9.078;2022-11-20T00:29:43;3.70;99.90
2300;DHT22;1158;48.750;9.078;2022-11-20T00:32:10;3.80;99.90
2300;DHT22;1158;48.750;9.078;2022-11-20T00:34:36;3.70;99.90
2300;DHT22;1158;48.750;9.078;2022-11-20T00:37:03;3.70;99.90
2300;DHT22;1158;48.750;9.078;2022-11-20T00:39:31;3.60;99.90
2300;DHT22;1158;48.750;9.078;2022-11-20T00:41:58;3.60;99.90
2300;DHT22;1158;48.750;9.078;2022-11-20T00:44:25;3.70;99.90
2300;DHT22;1158;48.750;9.078;2022-11-20T00:46:51;3.70;99.90
2300;DHT22;1158;48.750;9.078;2022-11-20T00:49:18;3.60;99.90
2300;DHT22;1158;48.750;9.078;2022-11-20T00:51:45;3.60;99.90
2300;DHT22;1158;48.750;9.078;2022-11-20T00:54:12;3.60;99.90
2300;DHT22;1158;48.750;9.078;2022-11-20T00:56:40;3.60;99.90
2300;DHT22;1158;48.750;9.078;2022-11-20T00:59:09;3.60;99.90
2300;DHT22;1158;48.750;9.078;2022-11-20T01:01:36;3.60;99.90
2300;DHT22;1158;48.750;9.078;2022-11-20T01:04:03;3.60;99.90
2300;DHT22;1158;48.750;9.078;2022-11-20T01:06:32;3.70;99.90
2300;DHT22;1158;48.750;9.078;2022-11-20T01:09:02;3.60;99.90
2300;DHT22;1158;48.750;9.078;2022-11-20T01:11:31;3.60;99.90
2300;DHT22;1158;48.750;9.078;2022-11-20T01:14:01;3.50;99.90
2300;DHT22;1158;48.750;9.078;2022-11-20T01:16:30;3.50;99.90
2300;DHT22;1158;48.750;9.078;2022-11-20T01:18:58;3.50;99.90
2300;DHT22;1158;48.750;9.078;2022-11-20T01:21:27;3.50;99.90
2300;DHT22;1158;48.750;9.078;2022-11-20T01:23:55;3.40;99.90
2300;DHT22;1158;48.750;9.078;2022-11-20T01:26:23;3.30;99.90
2300;DHT22;1158;48.750;9.078;2022-11-20T01:28:50;3.30;99.90
2300;DHT22;1158;48.750;9.078;2022-11-20T01:31:20;3.30;99.90
2300;DHT22;1158;48.750;9.078;2022-11-20T01:33:49;3.20;99.90
2300;DHT22;1158;48.750;9.078;2022-11-20T01:36:17;3.10;99.90
2300;DHT22;1158;48.750;9.078;2022-11-20T01:38:44;3.10;99.90
2300;DHT22;1158;48.750;9.078;2022-11-20T01:41:13;3.00;99.90
2300;DHT22;1158;48.750;9.078;2022-11-20T01:44:02;3.00;99.90
2300;DHT22;1158;48.750;9.078;2022-11-20T01:46:29;2.90;99.90
2300;DHT22;1158;48.750;9.078;2022-11-20T01:49:00;2.90;99.90
2300;DHT22;1158;48.750;9.078;2022-11-20T01:51:30;2.90;99.90
2300;DHT22;1158;48.750;9.078;2022-11-20T01:54:01;2.90;99.90
2300;DHT22;1158;48.750;9.078;2022-11-20T01:56:31;2.90;99.90
2300;DHT22;1158;48.750;9.078;2022-11-20T01:59:00;2.80;99.90
2300;DHT22;1158;48.750;9.078;2022-11-20T02:01:29;2.80;99.90
2300;DHT22;1158;48.750;9.078;2022-11-20T02:03:56;2.70;99.90
2300;DHT22;1158;48.750;9.078;2022-11-20T02:06:26;2.70;99.90
2300;DHT22;1158;48.750;9.078;2022-11-20T02:08:54;2.60;99.90
2300;DHT22;1158;48.750;9.078;2022-11-20T02:11:21;2.60;99.90
2300;DHT22;1158;48.750;9.078;2022-11-20T02:13:48;2.70;99.90
2300;DHT22;1158;48.750;9.078;2022-11-20T02:16:18;2.70;99.90
2300;DHT22;1158;48.750;9.078;2022-11-20T02:18:47;2.70;99.90
2300;DHT22;1158;48.750;9.078;2022-11-20T02:21:24;2.70;99.90
2300;DHT22;1158;48.750;9.078;2022-11-20T02:24:10;2.70;99.90
2300;DHT22;1158;48.750;9.078;2022-11-20T02:26:43;2.80;99.90
2300;DHT22;1158;48.750;9.078;2022-11-20T02:29:11;2.80;99.90
2300;DHT22;1158;48.750;9.078;2022-11-20T02:31:40;2.80;99.90
2300;DHT22;1158;48.750;9.078;2022-11-20T02:34:07;2.80;99.90
2300;DHT22;1158;48.750;9.078;2022-11-20T02:36:35;2.70;99.90
2300;DHT22;1158;48.750;9.078;2022-11-20T02:39:03;2.70;99.90
2300;DHT22;1158;48.750;9.078;2022-11-20T02:41:33;2.70;99.90
2300;DHT22;1158;48.750;9.078;2022-11-20T02:44:00;2.70;99.90
2300;DHT22;1158;48.750;9.078;2022-11-20T02:46:27;2.80;99.90
2300;DHT22;1158;48.750;9.078;2022-11-20T02:48:54;2.90;99.90
2300;DHT22;1158;48.750;9.078;2022-11-20T02:51:20;2.90;99.90
2300;DHT22;1158;48.750;9.078;2022-11-20T02:53:47;2.90;99.90
2300;DHT22;1158;48.750;9.078;2022-11-20T02:56:14;2.90;99.90
2300;DHT22;1158;48.750;9.078;2022-11-20T02:58:42;3.00;99.90
2300;DHT22;1158;48.750;9.078;2022-11-20T03:01:09;3.00;99.90
2300;DHT22;1158;48.750;9.078;2022-11-20T03:03:36;3.00;99.90
2300;DHT22;1158;48.750;9.078;2022-11-20T03:06:03;3.00;99.90
2300;DHT22;1158;48.750;9.078;2022-11-20T03:08:30;3.10;99.90
2300;DHT22;1158;48.750;9.078;2022-11-20T03:10:56;3.10;99.90
2300;DHT22;1158;48.750;9.078;2022-11-20T03:13:24;3.20;99.90
2300;DHT22;1158;48.750;9.078;2022-11-20T03:15:53;3.20;99.90
2300;DHT22;1158;48.750;9.078;2022-11-20T03:18:20;3.20;99.90
2300;DHT22;1158;48.750;9.078;2022-11-20T03:20:46;3.20;99.90
2300;DHT22;1158;48.750;9.078;2022-11-20T03:23:13;3.10;99.90
2300;DHT22;1158;48.750;9.078;2022-11-20T03:25:40;3.10;99.90
2300;DHT22;1158;48.750;9.078;2022-11-20T03:28:06;3.10;99.90
2300;DHT22;1158;48.750;9.078;2022-11-20T03:30:33;3.10;99.90
2300;DHT22;1158;48.750;9.078;2022-11-20T03:33:02;3.20;99.90
2300;DHT22;1158;48.750;9.078;2022-11-20T03:35:29;3.20;99.90
2300;DHT22;1158;48.750;9.078;2022-11-20T03:37:57;3.10;99.90
2300;DHT22;1158;48.750;9.078;2022-11-20T03:40:24;3.10;99.90
2300;DHT22;1158;48.750;9.078;2022-11-20T03:42:50;3.00;99.90
2300;DHT22;1158;48.750;9.078;2022-11-20T03:45:18;3.00;99.90
2300;DHT22;1158;48.750;9.078;2022-11-20T03:47:45;3.00;99.90
2300;DHT22;1158;48.750;9.078;2022-11-20T03:50:13;2.90;99.90
2300;DHT22;1158;48.750;9.078;2022-11-20T03:52:40;2.80;99.90
2300;DHT22;1158;48.750;9.078;2022-11-20T03:55:08;2.80;99.90
2300;DHT22;1158;48.750;9.078;2022-11-20T03:57:34;2.80;99.90
2300;DHT22;1158;48.750;9.078;2022-11-20T04:00:02;2.80;99.90
2300;DHT22;1158;48.750;9.078;2022-11-20T04:02:29;2.70;99.90
2300;DHT22;1158;48.750;9.078;2022-11-20T04:04:56;2.60;99.90
2300;DHT22;1158;48.750;9.078;2022-11-20T04:07:24;2.60;99.90
2300;DHT22;1158;48.750;9.078;2022-11-20T04:09:50;2.60;99.90
2300;DHT22;1158;48.750;9.078;2022-11-20T04:12:17;2.60;99.90
2300;DHT22;1158;48.750;9.078;2022-11-20T04:14:44;2.60;99.90
2300;DHT22;1158;48.750;9.078;2022-11-20T04:17:10;2.60;99.90
2300;DHT22;1158;48.750;9.078;2022-11-20T04:19:37;2.50;99.90
2300;DHT22;1158;48.750;9.078;2022-11-20T04:22:04;2.60;99.90
2300;DHT22;1158;48.750;9.078;2022-11-20T04:24:32;2.60;99.90
2300;DHT22;1158;48.750;9.078;2022-11-20T04:26:59;2.60;99.90
2300;DHT22;1158;48.750;9.078;2022-11-20T04:29:25;2.60;99.90
2300;DHT22;1158;48.750;9.078;2022-11-20T04:31:52;2.60;99.90
2300;DHT22;1158;48.750;9.078;2022-11-20T04:34:19;2.70;99.90
2300;DHT22;1158;48.750;9.078;2022-11-20T04:36:46;2.70;99.90
2300;DHT22;1158;48.750;9.078;2022-11-20T04:39:14;2.80;99.90
2300;DHT22;1158;48.750;9.078;2022-11-20T04:41:42;2.80;99.90
2300;DHT22;1158;48.750;9.078;2022-11-20T04:44:09;2.90;99.90
2300;DHT22;1158;48.750;9.078;2022-11-20T04:46:38;2.90;99.90
2300;DHT22;1158;48.750;9.078;2022-11-20T04:49:06;3.00;99.90
2300;DHT22;1158;48.750;9.078;2022-11-20T04:51:34;2.90;99.90
2300;DHT22;1158;48.750;9.078;2022-11-20T04:54:01;3.00;99.90
2300;DHT22;1158;48.750;9.078;2022-11-20T04:56:28;3.00;99.90
2300;DHT22;1158;48.750;9.078;2022-11-20T04:59:00;3.00;99.90
2300;DHT22;1158;48.750;9.078;2022-11-20T05:01:27;3.10;99.90
2300;DHT22;1158;48.750;9.078;2022-11-20T05:03:53;3.10;99.90
2300;DHT22;1158;48.750;9.078;2022-11-20T05:06:21;3.10;99.90
2300;DHT22;1158;48.750;9.078;2022-11-20T05:08:48;3.20;99.90
2300;DHT22;1158;48.750;9.078;2022-11-20T05:11:18;3.20;99.90
2300;DHT22;1158;48.750;9.078;2022-11-20T05:13:45;3.30;99.90
2300;DHT22;1158;48.750;9.078;2022-11-20T05:16:15;3.40;99.90
2300;DHT22;1158;48.750;9.078;2022-11-20T05:18:42;3.40;99.90
2300;DHT22;1158;48.750;9.078;2022-11-20T05:21:11;3.50;99.90
2300;DHT22;1158;48.750;9.078;2022-11-20T05:23:39;3.60;99.90
2300;DHT22;1158;48.750;9.078;2022-11-20T05:26:07;3.50;99.90
2300;DHT22;1158;48.750;9.078;2022-11-20T05:28:34;3.60;99.90
2300;DHT22;1158;48.750;9.078;2022-11-20T05:31:05;3.60;99.90
2300;DHT22;1158;48.750;9.078;2022-11-20T05:33:34;3.60;99.90
2300;DHT22;1158;48.750;9.078;2022-11-20T05:36:01;3.70;99.90
2300;DHT22;1158;48.750;9.078;2022-11-20T05:38:28;3.70;99.90
2300;DHT22;1158;48.750;9.078;2022-11-20T05:40:54;3.60;99.90
2300;DHT22;1158;48.750;9.078;2022-11-20T05:43:21;3.60;99.90
2300;DHT22;1158;48.750;9.078;2022-11-20T05:45:54;3.70;99.90
2300;DHT22;1158;48.750;9.078;2022-11-20T05:48:21;3.70;99.90
2300;DHT22;1158;48.750;9.078;2022-11-20T05:50:49;3.70;99.90
2300;DHT22;1158;48.750;9.078;2022-11-20T05:53:15;3.60;99.90
2300;DHT22;1158;48.750;9.078;2022-11-20T05:55:42;3.70;99.90
2300;DHT22;1158;48.750;9.078;2022-11-20T05:58:09;3.70;99.90
2300;DHT22;1158;48.750;9.078;2022-11-20T06:00:36;3.70;99.90
2300;DHT22;1158;48.750;9.078;2022-11-20T06:03:03;3.70;99.90
2300;DHT22;1158;48.750;9.078;2022-11-20T06:05:30;3.70;99.90
2300;DHT22;1158;48.750;9.078;2022-11-20T06:07:58;3.80;99.90
2300;DHT22;1158;48.750;9.078;2022-11-20T06:10:26;3.80;99.90
2300;DHT22;1158;48.750;9.078;2022-11-20T06:12:53;3.90;99.90
2300;DHT22;1158;48.750;9.078;2022-11-20T06:15:20;3.80;99.90
2300;DHT22;1158;48.750;9.078;2022-11-20T06:17:46;3.80;99.90
2300;DHT22;1158;48.750;9.078;2022-11-20T06:20:13;3.90;99.90
2300;DHT22;1158;48.750;9.078;2022-11-20T06:22:40;3.90;99.90
2300;DHT22;1158;48.750;9.078;2022-11-20T06:25:08;4.00;99.90
2300;DHT22;1158;48.750;9.078;2022-11-20T06:27:35;4.10;99.90
2300;DHT22;1158;48.750;9.078;2022-11-20T06:30:02;4.10;99.90
2300;DHT22;1158;48.750;9.078;2022-11-20T06:32:29;4.10;99.90
2300;DHT22;1158;48.750;9.078;2022-11-20T06:34:55;4.10;99.90
2300;DHT22;1158;48.750;9.078;2022-11-20T06:37:22;4.20;99.90
2300;DHT22;1158;48.750;9.078;2022-11-20T06:39:49;4.20;99.90
2300;DHT22;1158;48.750;9.078;2022-11-20T06:42:17;4.20;99.90
2300;DHT22;1158;48.750;9.078;2022-11-20T06:44:44;4.20;99.90
2300;DHT22;1158;48.750;9.078;2022-11-20T06:47:11;4.20;99.90
2300;DHT22;1158;48.750;9.078;2022-11-20T06:49:37;4.20;99.90
2300;DHT22;1158;48.750;9.078;2022-11-20T06:52:04;4.20;99.90
2300;DHT22;1158;48.750;9.078;2022-11-20T06:54:31;4.20;99.90
2300;DHT22;1158;48.750;9.078;2022-11-20T06:56:58;4.20;99.90
2300;DHT22;1158;48.750;9.078;2022-11-20T06:59:26;4.20;99.90
2300;DHT22;1158;48.750;9.078;2022-11-20T07:01:53;4.20;99.90
2300;DHT22;1158;48.750;9.078;2022-11-20T07:04:19;4.20;99.90
2300;DHT22;1158;48.750;9.078;2022-11-20T07:06:46;4.20;99.90
2300;DHT22;1158;48.750;9.078;2022-11-20T07:09:13;4.20;99.90
2300;DHT22;1158;48.750;9.078;2022-11-20T07:11:40;4.20;99.90
2300;DHT22;1158;48.750;9.078;2022-11-20T07:14:06;4.20;99.90
2300;DHT22;1158;48.750;9.078;2022-11-20T07:16:34;4.20;99.90
2300;DHT22;1158;48.750;9.078;2022-11-20T07:19:01;4.20;99.90
2300;DHT22;1158;48.750;9.078;2022-11-20T07:21:28;4.20;99.90
2300;DHT22;1158;48.750;9.078;2022-11-20T07:23:55;4.30;99.90
2300;DHT22;1158;48.750;9.078;2022-11-20T07:26:22;4.30;99.90
2300;DHT22;1158;48.750;9.078;2022-11-20T07:28:49;4.30;99.90
2300;DHT22;1158;48.750;9.078;2022-11-20T07:31:15;4.30;99.90
2300;DHT22;1158;48.750;9.078;2022-11-20T07:33:43;4.30;99.90
2300;DHT22;1158;48.750;9.078;2022-11-20T07:36:10;4.40;99.90
2300;DHT22;1158;48.750;9.078;2022-11-20T07:38:37;4.40;99.90
2300;DHT22;1158;48.750;9.078;2022-11-20T07:41:04;4.30;99.90
2300;DHT22;1158;48.750;9.078;2022-11-20T07:43:31;4.30;99.90
2300;DHT22;1158;48.750;9.078;2022-11-20T07:45:58;4.30;99.90
2300;DHT22;1158;48.750;9.078;2022-11-20T07:48:25;4.50;99.90
2300;DHT22;1158;48.750;9.078;2022-11-20T07:50:54;4.80;99.90
2300;DHT22;1158;48.750;9.078;2022-11-20T07:53:21;5.00;99.90
2300;DHT22;1158;48.750;9.078;2022-11-20T07:55:48;5.00;99.90
2300;DHT22;1158;48.750;9.078;2022-11-20T07:58:17;5.00;99.90
2300;DHT22;1158;48.750;9.078;2022-11-20T08:00:44;5.10;99.90
2300;DHT22;1158;48.750;9.078;2022-11-20T08:03:11;5.10;99.90
2300;DHT22;1158;48.750;9.078;2022-11-20T08:05:38;5.20;99.90
2300;DHT22;1158;48.750;9.078;2022-11-20T08:08:06;5.20;99.90
2300;DHT22;1158;48.750;9.078;2022-11-20T08:10:33;5.20;99.90
2300;DHT22;1158;48.750;9.078;2022-11-20T08:13:00;5.20;99.90
2300;DHT22;1158;48.750;9.078;2022-11-20T08:15:48;5.30;99.90
2300;DHT22;1158;48.750;9.078;2022-11-20T08:18:16;5.20;99.90
2300;DHT22;1158;48.750;9.078;2022-11-20T08:20:43;5.30;99.90
2300;DHT22;1158;48.750;9.078;2022-11-20T08:23:11;5.30;99.90
2300;DHT22;1158;48.750;9.078;2022-11-20T08:25:39;5.20;99.90
2300;DHT22;1158;48.750;9.078;2022-11-20T08:28:07;5.20;99.90
2300;DHT22;1158;48.750;9.078;2022-11-20T08:30:35;5.30;99.90
2300;DHT22;1158;48.750;9.078;2022-11-20T08:33:03;5.30;99.90
2300;DHT22;1158;48.750;9.078;2022-11-20T08:35:33;5.80;99.90
2300;DHT22;1158;48.750;9.078;2022-11-20T08:38:00;5.90;99.90
2300;DHT22;1158;48.750;9.078;2022-11-20T08:40:28;5.90;99.90
2300;DHT22;1158;48.750;9.078;2022-11-20T08:42:54;6.10;99.90
2300;DHT22;1158;48.750;9.078;2022-11-20T08:45:21;6.20;99.90
2300;DHT22;1158;48.750;9.078;2022-11-20T08:47:48;7.10;99.90
2300;DHT22;1158;48.750;9.078;2022-11-20T08:50:16;7.30;99.90
2300;DHT22;1158;48.750;9.078;2022-11-20T08:52:43;7.60;99.90
2300;DHT22;1158;48.750;9.078;2022-11-20T08:55:10;8.70;99.90
2300;DHT22;1158;48.750;9.078;2022-11-20T08:57:38;8.50;99.90
2300;DHT22;1158;48.750;9.078;2022-11-20T09:00:07;7.90;99.90
2300;DHT22;1158;48.750;9.078;2022-11-20T09:02:34;7.50;99.90
2300;DHT22;1158;48.750;9.078;2022-11-20T09:05:01;7.40;99.90
2300;DHT22;1158;48.750;9.078;2022-11-20T09:07:29;7.30;99.90
2300;DHT22;1158;48.750;9.078;2022-11-20T09:09:55;6.90;99.90
2300;DHT22;1158;48.750;9.078;2022-11-20T09:12:22;6.70;99.90
2300;DHT22;1158;48.750;9.078;2022-11-20T09:14:50;6.40;99.90
2300;DHT22;1158;48.750;9.078;2022-11-20T09:17:17;6.40;99.90
2300;DHT22;1158;48.750;9.078;2022-11-20T09:19:45;6.40;99.90
2300;DHT22;1158;48.750;9.078;2022-11-20T09:22:12;6.50;99.90
2300;DHT22;1158;48.750;9.078;2022-11-20T09:24:39;6.40;99.90
2300;DHT22;1158;48.750;9.078;2022-11-20T09:27:06;6.50;99.90
2300;DHT22;1158;48.750;9.078;2022-11-20T09:29:33;6.40;99.90
2300;DHT22;1158;48.750;9.078;2022-11-20T09:32:01;6.30;99.90
2300;DHT22;1158;48.750;9.078;2022-11-20T09:34:28;6.20;99.90
2300;DHT22;1158;48.750;9.078;2022-11-20T09:36:54;6.10;99.90
2300;DHT22;1158;48.750;9.078;2022-11-20T09:39:21;6.00;99.90
2300;DHT22;1158;48.750;9.078;2022-11-20T09:42:00;6.10;99.90
2300;DHT22;1158;48.750;9.078;2022-11-20T09:44:40;6.10;99.90
2300;DHT22;1158;48.750;9.078;2022-11-20T09:47:19;6.10;99.90
2300;DHT22;1158;48.750;9.078;2022-11-20T09:49:59;6.10;99.90
2300;DHT22;1158;48.750;9.078;2022-11-20T09:52:33;6.10;99.90
2300;DHT22;1158;48.750;9.078;2022-11-20T09:55:04;6.10;99.90
2300;DHT22;1158;48.750;9.078;2022-11-20T09:57:36;6.20;99.90
2300;DHT22;1158;48.750;9.078;2022-11-20T10:00:06;6.10;99.90
2300;DHT22;1158;48.750;9.078;2022-11-20T10:02:41;6.10;99.90
2300;DHT22;1158;48.750;9.078;2022-11-20T10:05:13;6.10;99.90
2300;DHT22;1158;48.750;9.078;2022-11-20T10:07:46;6.10;99.90
2300;DHT22;1158;48.750;9.078;2022-11-20T10:10:15;6.10;99.90
2300;DHT22;1158;48.750;9.078;2022-11-20T10:12:53;6.10;99.90
2300;DHT22;1158;48.750;9.078;2022-11-20T10:15:30;6.00;99.90
2300;DHT22;1158;48.750;9.078;2022-11-20T10:18:10;6.00;99.90
2300;DHT22;1158;48.750;9.078;2022-11-20T10:20:46;5.90;99.90
2300;DHT22;1158;48.750;9.078;2022-11-20T10:23:34;5.90;99.90
2300;DHT22;1158;48.750;9.078;2022-11-20T10:26:17;5.80;99.90
2300;DHT22;1158;48.750;9.078;2022-11-20T10:28:53;5.70;99.90
2300;DHT22;1158;48.750;9.078;2022-11-20T10:31:29;5.70;99.90
2300;DHT22;1158;48.750;9.078;2022-11-20T10:34:02;5.70;99.90
2300;DHT22;1158;48.750;9.078;2022-11-20T10:36:35;5.70;99.90
2300;DHT22;1158;48.750;9.078;2022-11-20T10:39:07;5.70;99.90
2300;DHT22;1158;48.750;9.078;2022-11-20T10:41:41;5.60;99.90
2300;DHT22;1158;48.750;9.078;2022-11-20T10:44:14;5.50;99.90
2300;DHT22;1158;48.750;9.078;2022-11-20T10:47:02;5.50;99.90
2300;DHT22;1158;48.750;9.078;2022-11-20T10:49:32;5.60;99.90
2300;DHT22;1158;48.750;9.078;2022-11-20T10:52:07;5.60;99.90
2300;DHT22;1158;48.750;9.078;2022-11-20T10:54:41;5.60;99.90
2300;DHT22;1158;48.750;9.078;2022-11-20T10:57:17;5.60;99.90
2300;DHT22;1158;48.750;9.078;2022-11-20T11:00:05;5.70;99.90
2300;DHT22;1158;48.750;9.078;2022-11-20T11:02:35;5.70;99.90
2300;DHT22;1158;48.750;9.078;2022-11-20T11:05:22;5.70;99.90
2300;DHT22;1158;48.750;9.078;2022-11-20T11:07:51;5.70;99.90
2300;DHT22;1158;48.750;9.078;2022-11-20T11:10:22;5.70;99.90
2300;DHT22;1158;48.750;9.078;2022-11-20T11:12:50;5.80;99.90
2300;DHT22;1158;48.750;9.078;2022-11-20T11:15:26;5.90;99.90
2300;DHT22;1158;48.750;9.078;2022-11-20T11:17:53;5.90;99.90
2300;DHT22;1158;48.750;9.078;2022-11-20T11:20:23;6.10;99.90
2300;DHT22;1158;48.750;9.078;2022-11-20T11:22:52;6.20;99.90
2300;DHT22;1158;48.750;9.078;2022-11-20T11:25:23;6.40;99.90
2300;DHT22;1158;48.750;9.078;2022-11-20T11:27:53;6.50;99.90
2300;DHT22;1158;48.750;9.078;2022-11-20T11:30:22;7.00;99.90
2300;DHT22;1158;48.750;9.078;2022-11-20T11:32:49;7.30;99.90
2300;DHT22;1158;48.750;9.078;2022-11-20T11:35:23;7.60;99.90
2300;DHT22;1158;48.750;9.078;2022-11-20T11:37:51;8.40;99.90
2300;DHT22;1158;48.750;9.078;2022-11-20T11:40:21;8.40;99.90
2300;DHT22;1158;48.750;9.078;2022-11-20T11:42:53;8.50;99.90
2300;DHT22;1158;48.750;9.078;2022-11-20T11:45:21;8.50;99.90
2300;DHT22;1158;48.750;9.078;2022-11-20T11:47:48;8.80;99.90
2300;DHT22;1158;48.750;9.078;2022-11-20T11:50:19;8.90;99.90
2300;DHT22;1158;48.750;9.078;2022-11-20T11:52:53;9.00;99.90
2300;DHT22;1158;48.750;9.078;2022-11-20T11:55:26;9.30;99.90
2300;DHT22;1158;48.750;9.078;2022-11-20T11:58:02;9.60;99.90
2300;DHT22;1158;48.750;9.078;2022-11-20T12:00:31;10.00;99.90
2300;DHT22;1158;48.750;9.078;2022-11-20T12:03:05;10.10;99.90
2300;DHT22;1158;48.750;9.078;2022-11-20T12:05:37;10.00;99.90
2300;DHT22;1158;48.750;9.078;2022-11-20T12:08:23;9.90;99.90
2300;DHT22;1158;48.750;9.078;2022-11-20T12:10:57;10.10;99.90
2300;DHT22;1158;48.750;9.078;2022-11-20T12:13:37;10.10;99.90
2300;DHT22;1158;48.750;9.078;2022-11-20T12:16:10;9.60;99.90
2300;DHT22;1158;48.750;9.078;2022-11-20T12:18:39;10.00;99.90
2300;DHT22;1158;48.750;9.078;2022-11-20T12:21:15;10.10;99.90
2300;DHT22;1158;48.750;9.078;2022-11-20T12:26:49;10.20;99.90
2300;DHT22;1158;48.750;9.078;2022-11-20T12:29:30;10.70;99.90
2300;DHT22;1158;48.750;9.078;2022-11-20T12:32:23;10.80;99.90
2300;DHT22;1158;48.750;9.078;2022-11-20T12:35:02;10.40;99.90
2300;DHT22;1158;48.750;9.078;2022-11-20T12:37:38;10.40;99.90
2300;DHT22;1158;48.750;9.078;2022-11-20T12:40:21;10.60;99.90
2300;DHT22;1158;48.750;9.078;2022-11-20T12:42:58;10.80;99.90
2300;DHT22;1158;48.750;9.078;2022-11-20T12:46:18;11.30;99.90
2300;DHT22;1158;48.750;9.078;2022-11-20T12:48:58;10.90;99.90
2300;DHT22;1158;48.750;9.078;2022-11-20T12:51:48;10.80;99.90
2300;DHT22;1158;48.750;9.078;2022-11-20T12:54:39;11.10;99.90
2300;DHT22;1158;48.750;9.078;2022-11-20T12:57:17;10.30;99.90
2300;DHT22;1158;48.750;9.078;2022-11-20T13:00:10;10.20;99.90
2300;DHT22;1158;48.750;9.078;2022-11-20T13:02:53;10.40;99.90
2300;DHT22;1158;48.750;9.078;2022-11-20T13:05:27;10.60;99.90
2300;DHT22;1158;48.750;9.078;2022-11-20T13:07:58;10.60;99.90
2300;DHT22;1158;48.750;9.078;2022-11-20T13:10:33;10.50;99.90
2300;DHT22;1158;48.750;9.078;2022-11-20T13:13:07;10.40;99.90
2300;DHT22;1158;48.750;9.078;2022-11-20T13:15:47;10.90;99.90
2300;DHT22;1158;48.750;9.078;2022-11-20T13:18:15;10.60;99.90
2300;DHT22;1158;48.750;9.078;2022-11-20T13:20:43;10.10;99.90
2300;DHT22;1158;48.750;9.078;2022-11-20T13:23:10;9.40;99.90
2300;DHT22;1158;48.750;9.078;2022-11-20T13:25:39;9.00;99.90
2300;DHT22;1158;48.750;9.078;2022-11-20T13:28:29;8.80;99.90
2300;DHT22;1158;48.750;9.078;2022-11-20T13:30:57;8.40;99.90
2300;DHT22;1158;48.750;9.078;2022-11-20T13:33:28;8.60;99.90
2300;DHT22;1158;48.750;9.078;2022-11-20T13:35:58;8.60;99.90
2300;DHT22;1158;48.750;9.078;2022-11-20T13:38:25;8.20;99.90
2300;DHT22;1158;48.750;9.078;2022-11-20T13:40:54;7.90;99.90
2300;DHT22;1158;48.750;9.078;2022-11-20T13:43:34;7.90;99.90
2300;DHT22;1158;48.750;9.078;2022-11-20T13:46:03;8.00;99.90
2300;DHT22;1158;48.750;9.078;2022-11-20T13:48:32;7.90;99.90
2300;DHT22;1158;48.750;9.078;2022-11-20T13:51:09;7.80;99.90
2300;DHT22;1158;48.750;9.078;2022-11-20T13:54:06;7.40;99.90
2300;DHT22;1158;48.750;9.078;2022-11-20T13:56:40;7.20;99.90
2300;DHT22;1158;48.750;9.078;2022-11-20T13:59:20;7.10;99.90
2300;DHT22;1158;48.750;9.078;2022-11-20T14:01:50;6.90;99.90
2300;DHT22;1158;48.750;9.078;2022-11-20T14:04:21;6.70;99.90
2300;DHT22;1158;48.750;9.078;2022-11-20T14:06:50;6.60;99.90
2300;DHT22;1158;48.750;9.078;2022-11-20T14:09:27;6.60;99.90
2300;DHT22;1158;48.750;9.078;2022-11-20T14:11:53;6.70;99.90
2300;DHT22;1158;48.750;9.078;2022-11-20T14:14:23;6.80;99.90
2300;DHT22;1158;48.750;9.078;2022-11-20T14:16:51;6.80;99.90
2300;DHT22;1158;48.750;9.078;2022-11-20T14:19:43;6.70;99.90
2300;DHT22;1158;48.750;9.078;2022-11-20T14:22:18;6.50;99.90
2300;DHT22;1158;48.750;9.078;2022-11-20T14:24:46;6.40;99.90
2300;DHT22;1158;48.750;9.078;2022-11-20T14:27:15;6.40;99.90
2300;DHT22;1158;48.750;9.078;2022-11-20T14:29:44;6.30;99.90
2300;DHT22;1158;48.750;9.078;2022-11-20T14:32:15;6.30;99.90
2300;DHT22;1158;48.750;9.078;2022-11-20T14:34:44;6.40;99.90
2300;DHT22;1158;48.750;9.078;2022-11-20T14:37:12;6.50;99.90
2300;DHT22;1158;48.750;9.078;2022-11-20T14:39:42;6.50;99.90
2300;DHT22;1158;48.750;9.078;2022-11-20T14:42:15;6.50;99.90
2300;DHT22;1158;48.750;9.078;2022-11-20T14:44:44;6.50;99.90
2300;DHT22;1158;48.750;9.078;2022-11-20T14:47:12;6.50;99.90
2300;DHT22;1158;48.750;9.078;2022-11-20T14:49:40;6.50;99.90
2300;DHT22;1158;48.750;9.078;2022-11-20T14:52:12;6.50;99.90
2300;DHT22;1158;48.750;9.078;2022-11-20T14:54:44;6.40;99.90
2300;DHT22;1158;48.750;9.078;2022-11-20T14:57:21;6.40;99.90
2300;DHT22;1158;48.750;9.078;2022-11-20T14:59:49;6.30;99.90
2300;DHT22;1158;48.750;9.078;2022-11-20T15:02:16;6.30;99.90
2300;DHT22;1158;48.750;9.078;2022-11-20T15:04:47;6.30;99.90
2300;DHT22;1158;48.750;9.078;2022-11-20T15:07:24;6.30;99.90
2300;DHT22;1158;48.750;9.078;2022-11-20T15:10:03;6.10;99.90
2300;DHT22;1158;48.750;9.078;2022-11-20T15:12:31;6.10;99.90
2300;DHT22;1158;48.750;9.078;2022-11-20T15:15:01;6.00;99.90
2300;DHT22;1158;48.750;9.078;2022-11-20T15:17:29;5.90;99.90
2300;DHT22;1158;48.750;9.078;2022-11-20T15:19:56;5.90;99.90
2300;DHT22;1158;48.750;9.078;2022-11-20T15:22:23;5.80;99.90
2300;DHT22;1158;48.750;9.078;2022-11-20T15:24:50;5.80;99.90
2300;DHT22;1158;48.750;9.078;2022-11-20T15:27:17;5.70;99.90
2300;DHT22;1158;48.750;9.078;2022-11-20T15:29:44;5.60;99.90
2300;DHT22;1158;48.750;9.078;2022-11-20T15:32:12;5.50;99.90
2300;DHT22;1158;48.750;9.078;2022-11-20T15:34:39;5.50;99.90
2300;DHT22;1158;48.750;9.078;2022-11-20T15:37:05;5.40;99.90
2300;DHT22;1158;48.750;9.078;2022-11-20T15:39:32;5.30;99.90
2300;DHT22;1158;48.750;9.078;2022-11-20T15:41:59;5.30;99.90
2300;DHT22;1158;48.750;9.078;2022-11-20T15:44:25;5.20;99.90
2300;DHT22;1158;48.750;9.078;2022-11-20T15:46:52;5.10;99.90
2300;DHT22;1158;48.750;9.078;2022-11-20T15:49:20;5.10;99.90
2300;DHT22;1158;48.750;9.078;2022-11-20T15:51:49;5.10;99.90
2300;DHT22;1158;48.750;9.078;2022-11-20T15:54:19;5.10;99.90
2300;DHT22;1158;48.750;9.078;2022-11-20T15:56:47;5.10;99.90
2300;DHT22;1158;48.750;9.078;2022-11-20T15:59:14;5.00;99.90
2300;DHT22;1158;48.750;9.078;2022-11-20T16:01:41;5.10;99.90
2300;DHT22;1158;48.750;9.078;2022-11-20T16:04:10;5.00;99.90
2300;DHT22;1158;48.750;9.078;2022-11-20T16:06:38;4.90;99.90
2300;DHT22;1158;48.750;9.078;2022-11-20T16:09:06;4.90;99.90
2300;DHT22;1158;48.750;9.078;2022-11-20T16:11:33;4.90;99.90
2300;DHT22;1158;48.750;9.078;2022-11-20T16:14:00;4.90;99.90
2300;DHT22;1158;48.750;9.078;2022-11-20T16:16:45;4.90;99.90
2300;DHT22;1158;48.750;9.078;2022-11-20T16:19:11;4.90;99.90
2300;DHT22;1158;48.750;9.078;2022-11-20T16:21:40;5.00;99.90
2300;DHT22;1158;48.750;9.078;2022-11-20T16:24:09;5.00;99.90
2300;DHT22;1158;48.750;9.078;2022-11-20T16:26:36;5.00;99.90
2300;DHT22;1158;48.750;9.078;2022-11-20T16:29:04;5.00;99.90
2300;DHT22;1158;48.750;9.078;2022-11-20T16:31:31;5.10;99.90
2300;DHT22;1158;48.750;9.078;2022-11-20T16:34:00;5.20;99.90
2300;DHT22;1158;48.750;9.078;2022-11-20T16:36:28;5.20;99.90